sensor_id;sensor_type;location;lat;lon;timestamp;P1;durP1;ratioP1;P2;durP2;ratioP2
20073;SDS011;10197;54.282;10.078;2023-06-22T00:00:18;3.20;;;2.90;;
20073;SDS011;10197;54.282;10.078;2023-06-22T00:02:48;4.22;;;2.80;;
20073;SDS011;10197;54.282;10.078;2023-06-22T00:05:14;3.63;;;2.90;;
20073;SDS011;10197;54.282;10.078;2023-06-22T00:07:41;2.80;;;2.60;;
20073;SDS011;10197;54.282;10.078;2023-06-22T00:10:08;3.33;;;3.03;;
20073;SDS011;10197;54.282;10.078;2023-06-22T00:12:35;2.90;;;2.70;;
20073;SDS011;10197;54.282;10.078;2023-06-22T00:15:03;3.45;;;2.90;;
20073;SDS011;10197;54.282;10.078;2023-06-22T00:17:30;3.10;;;2.80;;
20073;SDS011;10197;54.282;10.078;2023-06-22T00:19:58;3.20;;;2.90;;
20073;SDS011;10197;54.282;10.078;2023-06-22T00:22:25;3.13;;;2.83;;
20073;SDS011;10197;54.282;10.078;2023-06-22T00:24:54;3.22;;;2.97;;
20073;SDS011;10197;54.282;10.078;2023-06-22T00:27:21;3.53;;;3.22;;
20073;SDS011;10197;54.282;10.078;2023-06-22T00:29:48;3.17;;;2.70;;
20073;SDS011;10197;54.282;10.078;2023-06-22T00:32:15;3.20;;;2.90;;
20073;SDS011;10197;54.282;10.078;2023-06-22T00:34:42;3.60;;;3.08;;
20073;SDS011;10197;54.282;10.078;2023-06-22T00:37:11;3.28;;;2.88;;
20073;SDS011;10197;54.282;10.078;2023-06-22T00:39:38;2.85;;;2.65;;
20073;SDS011;10197;54.282;10.078;2023-06-22T00:42:05;3.22;;;2.88;;
20073;SDS011;10197;54.282;10.078;2023-06-22T00:44:32;2.65;;;2.45;;
20073;SDS011;10197;54.282;10.078;2023-06-22T00:46:58;3.22;;;2.80;;
20073;SDS011;10197;54.282;10.078;2023-06-22T00:49:32;3.13;;;2.83;;
20073;SDS011;10197;54.282;10.078;2023-06-22T00:51:59;2.78;;;2.58;;
20073;SDS011;10197;54.282;10.078;2023-06-22T00:54:27;3.00;;;2.80;;
20073;SDS011;10197;54.282;10.078;2023-06-22T00:56:55;3.03;;;2.72;;
20073;SDS011;10197;54.282;10.078;2023-06-22T00:59:23;3.20;;;2.90;;
20073;SDS011;10197;54.282;10.078;2023-06-22T01:01:51;2.90;;;2.70;;
20073;SDS011;10197;54.282;10.078;2023-06-22T01:04:18;3.45;;;2.80;;
20073;SDS011;10197;54.282;10.078;2023-06-22T01:06:45;2.97;;;2.78;;
20073;SDS011;10197;54.282;10.078;2023-06-22T01:09:22;4.57;;;2.53;;
20073;SDS011;10197;54.282;10.078;2023-06-22T01:11:54;2.80;;;2.60;;
20073;SDS011;10197;54.282;10.078;2023-06-22T01:14:27;4.60;;;2.90;;
20073;SDS011;10197;54.282;10.078;2023-06-22T01:16:56;2.78;;;2.58;;
20073;SDS011;10197;54.282;10.078;2023-06-22T01:19:29;4.65;;;2.92;;
20073;SDS011;10197;54.282;10.078;2023-06-22T01:22:02;3.40;;;3.10;;
20073;SDS011;10197;54.282;10.078;2023-06-22T01:24:32;3.28;;;2.97;;
20073;SDS011;10197;54.282;10.078;2023-06-22T01:27:09;3.00;;;2.70;;
20073;SDS011;10197;54.282;10.078;2023-06-22T01:29:43;3.20;;;2.88;;
20073;SDS011;10197;54.282;10.078;2023-06-22T01:32:11;3.63;;;3.30;;
20073;SDS011;10197;54.282;10.078;2023-06-22T01:34:38;3.50;;;3.13;;
20073;SDS011;10197;54.282;10.078;2023-06-22T01:37:06;3.22;;;2.88;;
20073;SDS011;10197;54.282;10.078;2023-06-22T01:39:33;2.90;;;2.70;;
20073;SDS011;10197;54.282;10.078;2023-06-22T01:42:01;3.45;;;3.15;;
20073;SDS011;10197;54.282;10.078;2023-06-22T01:44:30;3.90;;;3.33;;
20073;SDS011;10197;54.282;10.078;2023-06-22T01:46:58;3.08;;;2.78;;
20073;SDS011;10197;54.282;10.078;2023-06-22T01:49:26;3.55;;;2.60;;
20073;SDS011;10197;54.282;10.078;2023-06-22T01:51:52;8.25;;;3.08;;
20073;SDS011;10197;54.282;10.078;2023-06-22T01:54:20;6.97;;;2.88;;
20073;SDS011;10197;54.282;10.078;2023-06-22T01:56:47;3.22;;;2.60;;
20073;SDS011;10197;54.282;10.078;2023-06-22T01:59:16;3.13;;;2.83;;
20073;SDS011;10197;54.282;10.078;2023-06-22T02:01:48;2.90;;;2.60;;
20073;SDS011;10197;54.282;10.078;2023-06-22T02:04:21;3.25;;;2.63;;
20073;SDS011;10197;54.282;10.078;2023-06-22T02:06:50;3.03;;;2.72;;
20073;SDS011;10197;54.282;10.078;2023-06-22T02:09:19;3.60;;;2.70;;
20073;SDS011;10197;54.282;10.078;2023-06-22T02:11:47;2.90;;;2.70;;
20073;SDS011;10197;54.282;10.078;2023-06-22T02:14:16;3.03;;;2.70;;
20073;SDS011;10197;54.282;10.078;2023-06-22T02:16:44;3.20;;;2.90;;
20073;SDS011;10197;54.282;10.078;2023-06-22T02:19:11;3.13;;;2.67;;
20073;SDS011;10197;54.282;10.078;2023-06-22T02:21:45;3.30;;;3.00;;
20073;SDS011;10197;54.282;10.078;2023-06-22T02:24:12;2.83;;;2.55;;
20073;SDS011;10197;54.282;10.078;2023-06-22T02:26:39;3.35;;;3.05;;
20073;SDS011;10197;54.282;10.078;2023-06-22T02:29:07;3.13;;;2.90;;
20073;SDS011;10197;54.282;10.078;2023-06-22T02:31:34;2.58;;;2.38;;
20073;SDS011;10197;54.282;10.078;2023-06-22T02:34:01;4.38;;;2.80;;
20073;SDS011;10197;54.282;10.078;2023-06-22T02:36:28;3.00;;;2.78;;
20073;SDS011;10197;54.282;10.078;2023-06-22T02:38:57;2.80;;;2.60;;
20073;SDS011;10197;54.282;10.078;2023-06-22T02:41:26;2.95;;;2.75;;
20073;SDS011;10197;54.282;10.078;2023-06-22T02:43:55;2.85;;;2.65;;
20073;SDS011;10197;54.282;10.078;2023-06-22T02:46:22;3.90;;;2.90;;
20073;SDS011;10197;54.282;10.078;2023-06-22T02:48:50;3.00;;;2.80;;
20073;SDS011;10197;54.282;10.078;2023-06-22T02:51:17;3.15;;;2.85;;
20073;SDS011;10197;54.282;10.078;2023-06-22T02:53:44;3.20;;;2.90;;
20073;SDS011;10197;54.282;10.078;2023-06-22T02:56:15;3.10;;;2.85;;
20073;SDS011;10197;54.282;10.078;2023-06-22T02:58:43;3.45;;;3.10;;
20073;SDS011;10197;54.282;10.078;2023-06-22T03:01:11;3.75;;;3.03;;
20073;SDS011;10197;54.282;10.078;2023-06-22T03:03:40;3.08;;;2.78;;
20073;SDS011;10197;54.282;10.078;2023-06-22T03:06:08;3.08;;;2.88;;
20073;SDS011;10197;54.282;10.078;2023-06-22T03:08:39;2.78;;;2.50;;
20073;SDS011;10197;54.282;10.078;2023-06-22T03:11:07;2.97;;;2.72;;
20073;SDS011;10197;54.282;10.078;2023-06-22T03:13:36;2.50;;;2.28;;
20073;SDS011;10197;54.282;10.078;2023-06-22T03:16:05;2.85;;;2.58;;
20073;SDS011;10197;54.282;10.078;2023-06-22T03:18:31;2.95;;;2.70;;
20073;SDS011;10197;54.282;10.078;2023-06-22T03:20:58;3.30;;;3.00;;
20073;SDS011;10197;54.282;10.078;2023-06-22T03:23:27;3.30;;;2.95;;
20073;SDS011;10197;54.282;10.078;2023-06-22T03:25:54;3.08;;;2.80;;
20073;SDS011;10197;54.282;10.078;2023-06-22T03:28:22;2.78;;;2.58;;
20073;SDS011;10197;54.282;10.078;2023-06-22T03:30:50;3.00;;;2.80;;
20073;SDS011;10197;54.282;10.078;2023-06-22T03:33:17;2.95;;;2.65;;
20073;SDS011;10197;54.282;10.078;2023-06-22T03:35:43;3.88;;;3.47;;
20073;SDS011;10197;54.282;10.078;2023-06-22T03:38:10;3.10;;;2.80;;
20073;SDS011;10197;54.282;10.078;2023-06-22T03:40:37;3.28;;;2.97;;
20073;SDS011;10197;54.282;10.078;2023-06-22T03:43:04;3.30;;;3.00;;
20073;SDS011;10197;54.282;10.078;2023-06-22T03:45:32;3.13;;;2.90;;
20073;SDS011;10197;54.282;10.078;2023-06-22T03:48:00;3.40;;;2.95;;
20073;SDS011;10197;54.282;10.078;2023-06-22T03:50:27;3.13;;;2.83;;
20073;SDS011;10197;54.282;10.078;2023-06-22T03:52:55;2.80;;;2.53;;
20073;SDS011;10197;54.282;10.078;2023-06-22T03:55:22;3.30;;;3.00;;
20073;SDS011;10197;54.282;10.078;2023-06-22T03:57:48;3.67;;;3.28;;
20073;SDS011;10197;54.282;10.078;2023-06-22T04:00:15;2.90;;;2.70;;
20073;SDS011;10197;54.282;10.078;2023-06-22T04:02:42;2.95;;;2.75;;
20073;SDS011;10197;54.282;10.078;2023-06-22T04:05:11;3.20;;;2.78;;
20073;SDS011;10197;54.282;10.078;2023-06-22T04:07:37;3.20;;;2.90;;
20073;SDS011;10197;54.282;10.078;2023-06-22T04:10:05;3.05;;;2.80;;
20073;SDS011;10197;54.282;10.078;2023-06-22T04:12:35;3.72;;;2.80;;
20073;SDS011;10197;54.282;10.078;2023-06-22T04:15:02;3.17;;;2.88;;
20073;SDS011;10197;54.282;10.078;2023-06-22T04:17:29;4.82;;;3.05;;
20073;SDS011;10197;54.282;10.078;2023-06-22T04:19:56;4.38;;;3.40;;
20073;SDS011;10197;54.282;10.078;2023-06-22T04:22:24;3.30;;;3.00;;
20073;SDS011;10197;54.282;10.078;2023-06-22T04:24:51;3.35;;;2.90;;
20073;SDS011;10197;54.282;10.078;2023-06-22T04:27:18;3.63;;;3.08;;
20073;SDS011;10197;54.282;10.078;2023-06-22T04:29:45;3.50;;;2.80;;
20073;SDS011;10197;54.282;10.078;2023-06-22T04:32:14;3.28;;;2.97;;
20073;SDS011;10197;54.282;10.078;2023-06-22T04:34:41;3.28;;;2.95;;
20073;SDS011;10197;54.282;10.078;2023-06-22T04:37:08;3.75;;;3.40;;
20073;SDS011;10197;54.282;10.078;2023-06-22T04:39:39;3.53;;;3.10;;
20073;SDS011;10197;54.282;10.078;2023-06-22T04:42:07;3.83;;;3.42;;
20073;SDS011;10197;54.282;10.078;2023-06-22T04:44:34;3.15;;;2.85;;
20073;SDS011;10197;54.282;10.078;2023-06-22T04:47:01;3.92;;;3.53;;
20073;SDS011;10197;54.282;10.078;2023-06-22T04:49:29;3.45;;;3.15;;
20073;SDS011;10197;54.282;10.078;2023-06-22T04:51:59;4.38;;;3.97;;
20073;SDS011;10197;54.282;10.078;2023-06-22T04:54:26;5.50;;;4.32;;
20073;SDS011;10197;54.282;10.078;2023-06-22T04:56:54;5.68;;;5.07;;
20073;SDS011;10197;54.282;10.078;2023-06-22T04:59:23;6.82;;;5.60;;
20073;SDS011;10197;54.282;10.078;2023-06-22T05:01:54;7.10;;;6.07;;
20073;SDS011;10197;54.282;10.078;2023-06-22T05:04:21;6.57;;;5.70;;
20073;SDS011;10197;54.282;10.078;2023-06-22T05:06:48;8.32;;;6.57;;
20073;SDS011;10197;54.282;10.078;2023-06-22T05:09:15;6.20;;;5.60;;
20073;SDS011;10197;54.282;10.078;2023-06-22T05:11:42;6.75;;;6.05;;
20073;SDS011;10197;54.282;10.078;2023-06-22T05:14:11;10.38;;;7.05;;
20073;SDS011;10197;54.282;10.078;2023-06-22T05:16:38;10.38;;;8.30;;
20073;SDS011;10197;54.282;10.078;2023-06-22T05:19:05;9.38;;;6.97;;
20073;SDS011;10197;54.282;10.078;2023-06-22T05:21:32;7.65;;;6.47;;
20073;SDS011;10197;54.282;10.078;2023-06-22T05:23:59;8.55;;;7.07;;
20073;SDS011;10197;54.282;10.078;2023-06-22T05:26:28;7.05;;;6.35;;
20073;SDS011;10197;54.282;10.078;2023-06-22T05:28:55;9.23;;;8.05;;
20073;SDS011;10197;54.282;10.078;2023-06-22T05:31:24;7.78;;;6.80;;
20073;SDS011;10197;54.282;10.078;2023-06-22T05:33:51;9.18;;;6.82;;
20073;SDS011;10197;54.282;10.078;2023-06-22T05:36:19;7.72;;;6.90;;
20073;SDS011;10197;54.282;10.078;2023-06-22T05:38:46;7.93;;;6.20;;
20073;SDS011;10197;54.282;10.078;2023-06-22T05:41:14;6.20;;;5.60;;
20073;SDS011;10197;54.282;10.078;2023-06-22T05:43:41;9.07;;;6.45;;
20073;SDS011;10197;54.282;10.078;2023-06-22T05:46:08;10.02;;;6.20;;
20073;SDS011;10197;54.282;10.078;2023-06-22T05:48:37;8.23;;;6.93;;
20073;SDS011;10197;54.282;10.078;2023-06-22T05:51:16;8.55;;;6.50;;
20073;SDS011;10197;54.282;10.078;2023-06-22T05:53:43;6.53;;;5.30;;
20073;SDS011;10197;54.282;10.078;2023-06-22T05:56:14;8.85;;;5.90;;
20073;SDS011;10197;54.282;10.078;2023-06-22T05:58:41;8.25;;;6.45;;
20073;SDS011;10197;54.282;10.078;2023-06-22T06:01:08;6.85;;;5.25;;
20073;SDS011;10197;54.282;10.078;2023-06-22T06:03:36;8.32;;;5.88;;
20073;SDS011;10197;54.282;10.078;2023-06-22T06:06:06;7.38;;;5.40;;
20073;SDS011;10197;54.282;10.078;2023-06-22T06:08:33;6.75;;;5.90;;
20073;SDS011;10197;54.282;10.078;2023-06-22T06:11:00;7.28;;;5.85;;
20073;SDS011;10197;54.282;10.078;2023-06-22T06:13:27;8.45;;;5.72;;
20073;SDS011;10197;54.282;10.078;2023-06-22T06:15:54;7.65;;;4.93;;
20073;SDS011;10197;54.282;10.078;2023-06-22T06:18:23;6.60;;;5.80;;
20073;SDS011;10197;54.282;10.078;2023-06-22T06:20:52;6.63;;;5.38;;
20073;SDS011;10197;54.282;10.078;2023-06-22T06:23:19;5.93;;;4.63;;
20073;SDS011;10197;54.282;10.078;2023-06-22T06:25:46;8.85;;;4.82;;
20073;SDS011;10197;54.282;10.078;2023-06-22T06:28:12;5.85;;;4.68;;
20073;SDS011;10197;54.282;10.078;2023-06-22T06:30:39;5.25;;;3.67;;
20073;SDS011;10197;54.282;10.078;2023-06-22T06:33:06;5.82;;;4.03;;
20073;SDS011;10197;54.282;10.078;2023-06-22T06:35:34;6.03;;;4.57;;
20073;SDS011;10197;54.282;10.078;2023-06-22T06:38:02;10.13;;;4.47;;
20073;SDS011;10197;54.282;10.078;2023-06-22T06:40:29;18.70;;;5.25;;
20073;SDS011;10197;54.282;10.078;2023-06-22T06:42:57;23.50;;;5.78;;
20073;SDS011;10197;54.282;10.078;2023-06-22T06:45:23;9.35;;;3.92;;
20073;SDS011;10197;54.282;10.078;2023-06-22T06:47:52;13.75;;;7.63;;
20073;SDS011;10197;54.282;10.078;2023-06-22T06:50:19;7.93;;;5.63;;
20073;SDS011;10197;54.282;10.078;2023-06-22T06:52:46;8.82;;;6.30;;
20073;SDS011;10197;54.282;10.078;2023-06-22T06:55:17;10.63;;;6.60;;
20073;SDS011;10197;54.282;10.078;2023-06-22T06:57:44;5.70;;;3.55;;
20073;SDS011;10197;54.282;10.078;2023-06-22T07:00:14;6.63;;;3.60;;
20073;SDS011;10197;54.282;10.078;2023-06-22T07:02:41;3.28;;;2.78;;
20073;SDS011;10197;54.282;10.078;2023-06-22T07:05:09;5.53;;;3.25;;
20073;SDS011;10197;54.282;10.078;2023-06-22T07:07:36;3.42;;;3.05;;
20073;SDS011;10197;54.282;10.078;2023-06-22T07:10:04;3.92;;;2.95;;
20073;SDS011;10197;54.282;10.078;2023-06-22T07:12:34;3.22;;;2.72;;
20073;SDS011;10197;54.282;10.078;2023-06-22T07:15:02;6.72;;;3.28;;
20073;SDS011;10197;54.282;10.078;2023-06-22T07:17:30;3.92;;;2.60;;
20073;SDS011;10197;54.282;10.078;2023-06-22T07:19:56;3.25;;;2.60;;
20073;SDS011;10197;54.282;10.078;2023-06-22T07:22:23;3.60;;;3.05;;
20073;SDS011;10197;54.282;10.078;2023-06-22T07:24:50;3.78;;;2.85;;
20073;SDS011;10197;54.282;10.078;2023-06-22T07:27:17;3.63;;;2.90;;
20073;SDS011;10197;54.282;10.078;2023-06-22T07:29:46;2.90;;;2.60;;
20073;SDS011;10197;54.282;10.078;2023-06-22T07:32:13;6.38;;;3.33;;
20073;SDS011;10197;54.282;10.078;2023-06-22T07:34:40;2.97;;;2.67;;
20073;SDS011;10197;54.282;10.078;2023-06-22T07:37:08;4.07;;;2.90;;
20073;SDS011;10197;54.282;10.078;2023-06-22T07:39:35;3.83;;;2.80;;
20073;SDS011;10197;54.282;10.078;2023-06-22T07:42:03;3.70;;;2.80;;
20073;SDS011;10197;54.282;10.078;2023-06-22T07:44:30;3.35;;;2.90;;
20073;SDS011;10197;54.282;10.078;2023-06-22T07:46:58;4.82;;;2.67;;
20073;SDS011;10197;54.282;10.078;2023-06-22T07:49:27;3.90;;;2.88;;
20073;SDS011;10197;54.282;10.078;2023-06-22T07:51:54;3.08;;;2.72;;
20073;SDS011;10197;54.282;10.078;2023-06-22T07:54:21;4.68;;;2.85;;
20073;SDS011;10197;54.282;10.078;2023-06-22T07:56:47;3.67;;;2.60;;
20073;SDS011;10197;54.282;10.078;2023-06-22T07:59:14;3.40;;;2.85;;
20073;SDS011;10197;54.282;10.078;2023-06-22T08:01:41;3.53;;;2.83;;
20073;SDS011;10197;54.282;10.078;2023-06-22T08:04:10;3.53;;;2.13;;
20073;SDS011;10197;54.282;10.078;2023-06-22T08:06:37;6.32;;;2.70;;
20073;SDS011;10197;54.282;10.078;2023-06-22T08:09:03;2.92;;;2.60;;
20073;SDS011;10197;54.282;10.078;2023-06-22T08:11:30;4.22;;;2.42;;
20073;SDS011;10197;54.282;10.078;2023-06-22T08:13:58;4.13;;;2.50;;
20073;SDS011;10197;54.282;10.078;2023-06-22T08:16:25;3.50;;;2.40;;
20073;SDS011;10197;54.282;10.078;2023-06-22T08:18:52;4.60;;;2.70;;
20073;SDS011;10197;54.282;10.078;2023-06-22T08:21:21;2.80;;;2.47;;
20073;SDS011;10197;54.282;10.078;2023-06-22T08:23:48;4.28;;;2.60;;
20073;SDS011;10197;54.282;10.078;2023-06-22T08:26:15;3.00;;;2.47;;
20073;SDS011;10197;54.282;10.078;2023-06-22T08:28:42;2.95;;;2.30;;
20073;SDS011;10197;54.282;10.078;2023-06-22T08:31:09;3.17;;;2.17;;
20073;SDS011;10197;54.282;10.078;2023-06-22T08:33:37;4.22;;;2.60;;
20073;SDS011;10197;54.282;10.078;2023-06-22T08:36:04;2.92;;;2.53;;
20073;SDS011;10197;54.282;10.078;2023-06-22T08:38:33;4.32;;;2.60;;
20073;SDS011;10197;54.282;10.078;2023-06-22T08:40:59;4.13;;;2.78;;
20073;SDS011;10197;54.282;10.078;2023-06-22T08:43:26;3.03;;;2.20;;
20073;SDS011;10197;54.282;10.078;2023-06-22T08:45:53;2.92;;;2.58;;
20073;SDS011;10197;54.282;10.078;2023-06-22T08:48:20;3.35;;;2.17;;
20073;SDS011;10197;54.282;10.078;2023-06-22T08:50:47;3.00;;;2.38;;
20073;SDS011;10197;54.282;10.078;2023-06-22T08:53:14;3.55;;;2.42;;
20073;SDS011;10197;54.282;10.078;2023-06-22T08:55:42;2.78;;;2.50;;
20073;SDS011;10197;54.282;10.078;2023-06-22T08:58:09;2.75;;;2.42;;
20073;SDS011;10197;54.282;10.078;2023-06-22T09:00:36;3.95;;;2.85;;
20073;SDS011;10197;54.282;10.078;2023-06-22T09:03:03;5.10;;;2.58;;
20073;SDS011;10197;54.282;10.078;2023-06-22T09:05:30;3.63;;;2.08;;
20073;SDS011;10197;54.282;10.078;2023-06-22T09:07:57;2.85;;;2.30;;
20073;SDS011;10197;54.282;10.078;2023-06-22T09:10:25;2.65;;;2.38;;
20073;SDS011;10197;54.282;10.078;2023-06-22T09:12:53;6.18;;;2.20;;
20073;SDS011;10197;54.282;10.078;2023-06-22T09:15:21;4.55;;;2.58;;
20073;SDS011;10197;54.282;10.078;2023-06-22T09:17:48;2.47;;;2.10;;
20073;SDS011;10197;54.282;10.078;2023-06-22T09:20:15;2.63;;;1.70;;
20073;SDS011;10197;54.282;10.078;2023-06-22T09:22:42;2.20;;;1.70;;
20073;SDS011;10197;54.282;10.078;2023-06-22T09:25:09;2.67;;;2.17;;
20073;SDS011;10197;54.282;10.078;2023-06-22T09:27:36;3.22;;;1.90;;
20073;SDS011;10197;54.282;10.078;2023-06-22T09:30:05;2.85;;;2.13;;
20073;SDS011;10197;54.282;10.078;2023-06-22T09:32:33;2.55;;;2.08;;
20073;SDS011;10197;54.282;10.078;2023-06-22T09:35:01;2.80;;;1.95;;
20073;SDS011;10197;54.282;10.078;2023-06-22T09:37:31;4.10;;;1.80;;
20073;SDS011;10197;54.282;10.078;2023-06-22T09:39:58;1.80;;;1.70;;
20073;SDS011;10197;54.282;10.078;2023-06-22T09:42:29;3.08;;;2.30;;
20073;SDS011;10197;54.282;10.078;2023-06-22T09:44:55;3.25;;;2.00;;
20073;SDS011;10197;54.282;10.078;2023-06-22T09:47:23;2.42;;;1.75;;
20073;SDS011;10197;54.282;10.078;2023-06-22T09:49:50;3.40;;;2.08;;
20073;SDS011;10197;54.282;10.078;2023-06-22T09:52:17;5.00;;;3.80;;
20073;SDS011;10197;54.282;10.078;2023-06-22T09:54:44;3.17;;;2.88;;
20073;SDS011;10197;54.282;10.078;2023-06-22T09:57:11;2.90;;;2.42;;
20073;SDS011;10197;54.282;10.078;2023-06-22T09:59:38;2.92;;;2.40;;
20073;SDS011;10197;54.282;10.078;2023-06-22T10:02:05;2.47;;;2.13;;
20073;SDS011;10197;54.282;10.078;2023-06-22T10:04:34;4.15;;;2.17;;
20073;SDS011;10197;54.282;10.078;2023-06-22T10:07:01;2.35;;;2.05;;
20073;SDS011;10197;54.282;10.078;2023-06-22T10:09:28;1.95;;;1.65;;
20073;SDS011;10197;54.282;10.078;2023-06-22T10:11:55;3.33;;;2.50;;
20073;SDS011;10197;54.282;10.078;2023-06-22T10:14:22;2.03;;;1.80;;
20073;SDS011;10197;54.282;10.078;2023-06-22T10:16:52;3.00;;;2.00;;
20073;SDS011;10197;54.282;10.078;2023-06-22T10:19:19;2.28;;;2.05;;
20073;SDS011;10197;54.282;10.078;2023-06-22T10:21:47;2.22;;;1.85;;
20073;SDS011;10197;54.282;10.078;2023-06-22T10:24:14;2.92;;;2.10;;
20073;SDS011;10197;54.282;10.078;2023-06-22T10:26:41;2.40;;;2.00;;
20073;SDS011;10197;54.282;10.078;2023-06-22T10:29:08;3.10;;;1.90;;
20073;SDS011;10197;54.282;10.078;2023-06-22T10:31:35;4.30;;;2.65;;
20073;SDS011;10197;54.282;10.078;2023-06-22T10:34:01;3.00;;;2.20;;
20073;SDS011;10197;54.282;10.078;2023-06-22T10:36:28;6.93;;;2.30;;
20073;SDS011;10197;54.282;10.078;2023-06-22T10:39:03;2.80;;;2.15;;
20073;SDS011;10197;54.282;10.078;2023-06-22T10:41:32;3.20;;;2.13;;
20073;SDS011;10197;54.282;10.078;2023-06-22T10:44:02;3.30;;;2.40;;
20073;SDS011;10197;54.282;10.078;2023-06-22T10:46:29;2.58;;;1.92;;
20073;SDS011;10197;54.282;10.078;2023-06-22T10:48:56;4.32;;;2.83;;
20073;SDS011;10197;54.282;10.078;2023-06-22T10:51:24;12.38;;;3.38;;
20073;SDS011;10197;54.282;10.078;2023-06-22T10:53:50;3.80;;;2.70;;
20073;SDS011;10197;54.282;10.078;2023-06-22T10:56:19;3.67;;;2.30;;
20073;SDS011;10197;54.282;10.078;2023-06-22T10:58:46;3.38;;;2.17;;
20073;SDS011;10197;54.282;10.078;2023-06-22T11:01:12;3.65;;;2.72;;
20073;SDS011;10197;54.282;10.078;2023-06-22T11:03:40;3.47;;;2.33;;
20073;SDS011;10197;54.282;10.078;2023-06-22T11:06:07;2.53;;;2.08;;
20073;SDS011;10197;54.282;10.078;2023-06-22T11:08:33;2.40;;;2.20;;
20073;SDS011;10197;54.282;10.078;2023-06-22T11:11:01;3.25;;;2.10;;
20073;SDS011;10197;54.282;10.078;2023-06-22T11:13:29;2.90;;;2.22;;
20073;SDS011;10197;54.282;10.078;2023-06-22T11:15:56;2.88;;;2.13;;
20073;SDS011;10197;54.282;10.078;2023-06-22T11:18:23;5.63;;;2.90;;
20073;SDS011;10197;54.282;10.078;2023-06-22T11:20:50;3.40;;;2.80;;
20073;SDS011;10197;54.282;10.078;2023-06-22T11:23:17;3.00;;;2.30;;
20073;SDS011;10197;54.282;10.078;2023-06-22T11:25:44;3.25;;;2.40;;
20073;SDS011;10197;54.282;10.078;2023-06-22T11:28:11;2.42;;;1.88;;
20073;SDS011;10197;54.282;10.078;2023-06-22T11:30:40;3.08;;;2.40;;
20073;SDS011;10197;54.282;10.078;2023-06-22T11:33:06;2.75;;;2.35;;
20073;SDS011;10197;54.282;10.078;2023-06-22T11:35:33;2.90;;;2.60;;
20073;SDS011;10197;54.282;10.078;2023-06-22T11:38:00;2.78;;;2.50;;
20073;SDS011;10197;54.282;10.078;2023-06-22T11:40:28;4.30;;;2.30;;
20073;SDS011;10197;54.282;10.078;2023-06-22T11:42:55;5.45;;;2.85;;
20073;SDS011;10197;54.282;10.078;2023-06-22T11:45:22;4.95;;;2.35;;
20073;SDS011;10197;54.282;10.078;2023-06-22T11:47:50;2.65;;;2.08;;
20073;SDS011;10197;54.282;10.078;2023-06-22T11:50:17;4.10;;;2.70;;
20073;SDS011;10197;54.282;10.078;2023-06-22T11:52:44;2.88;;;2.55;;
20073;SDS011;10197;54.282;10.078;2023-06-22T11:55:11;3.88;;;2.47;;
20073;SDS011;10197;54.282;10.078;2023-06-22T11:57:38;4.97;;;2.95;;
20073;SDS011;10197;54.282;10.078;2023-06-22T12:00:19;2.72;;;2.40;;
20073;SDS011;10197;54.282;10.078;2023-06-22T12:02:48;3.67;;;2.60;;
20073;SDS011;10197;54.282;10.078;2023-06-22T12:05:17;4.72;;;2.35;;
20073;SDS011;10197;54.282;10.078;2023-06-22T12:07:45;3.00;;;2.63;;
20073;SDS011;10197;54.282;10.078;2023-06-22T12:10:12;3.58;;;2.47;;
20073;SDS011;10197;54.282;10.078;2023-06-22T12:12:39;3.83;;;2.90;;
20073;SDS011;10197;54.282;10.078;2023-06-22T12:15:06;4.10;;;3.10;;
20073;SDS011;10197;54.282;10.078;2023-06-22T12:17:33;3.30;;;3.00;;
20073;SDS011;10197;54.282;10.078;2023-06-22T12:20:01;3.17;;;2.75;;
20073;SDS011;10197;54.282;10.078;2023-06-22T12:22:32;3.67;;;2.55;;
20073;SDS011;10197;54.282;10.078;2023-06-22T12:24:58;2.97;;;2.50;;
20073;SDS011;10197;54.282;10.078;2023-06-22T12:27:28;3.33;;;2.83;;
20073;SDS011;10197;54.282;10.078;2023-06-22T12:29:55;2.92;;;2.63;;
20073;SDS011;10197;54.282;10.078;2023-06-22T12:32:22;3.20;;;2.38;;
20073;SDS011;10197;54.282;10.078;2023-06-22T12:34:49;3.53;;;2.30;;
20073;SDS011;10197;54.282;10.078;2023-06-22T12:37:19;3.78;;;2.35;;
20073;SDS011;10197;54.282;10.078;2023-06-22T12:39:47;2.75;;;2.30;;
20073;SDS011;10197;54.282;10.078;2023-06-22T12:42:15;2.92;;;2.22;;
20073;SDS011;10197;54.282;10.078;2023-06-22T12:44:44;5.07;;;2.53;;
20073;SDS011;10197;54.282;10.078;2023-06-22T12:47:11;2.20;;;2.00;;
20073;SDS011;10197;54.282;10.078;2023-06-22T12:49:38;3.10;;;2.45;;
20073;SDS011;10197;54.282;10.078;2023-06-22T12:52:10;4.47;;;2.47;;
20073;SDS011;10197;54.282;10.078;2023-06-22T12:54:37;3.08;;;1.90;;
20073;SDS011;10197;54.282;10.078;2023-06-22T12:57:06;4.07;;;2.17;;
20073;SDS011;10197;54.282;10.078;2023-06-22T12:59:33;4.55;;;3.35;;
20073;SDS011;10197;54.282;10.078;2023-06-22T13:02:00;4.20;;;2.20;;
20073;SDS011;10197;54.282;10.078;2023-06-22T13:04:29;3.38;;;2.53;;
20073;SDS011;10197;54.282;10.078;2023-06-22T13:06:56;5.38;;;2.30;;
20073;SDS011;10197;54.282;10.078;2023-06-22T13:09:23;2.53;;;2.30;;
20073;SDS011;10197;54.282;10.078;2023-06-22T13:11:50;2.88;;;1.92;;
20073;SDS011;10197;54.282;10.078;2023-06-22T13:14:20;2.45;;;2.10;;
20073;SDS011;10197;54.282;10.078;2023-06-22T13:16:49;2.85;;;1.83;;
20073;SDS011;10197;54.282;10.078;2023-06-22T13:19:16;3.75;;;2.00;;
20073;SDS011;10197;54.282;10.078;2023-06-22T13:21:43;2.33;;;1.85;;
20073;SDS011;10197;54.282;10.078;2023-06-22T13:24:10;4.72;;;2.08;;
20073;SDS011;10197;54.282;10.078;2023-06-22T13:26:37;10.35;;;2.60;;
20073;SDS011;10197;54.282;10.078;2023-06-22T13:29:04;4.10;;;2.60;;
20073;SDS011;10197;54.282;10.078;2023-06-22T13:31:32;3.65;;;2.30;;
20073;SDS011;10197;54.282;10.078;2023-06-22T13:33:59;2.58;;;2.17;;
20073;SDS011;10197;54.282;10.078;2023-06-22T13:36:25;7.05;;;3.17;;
20073;SDS011;10197;54.282;10.078;2023-06-22T13:38:55;4.97;;;2.25;;
20073;SDS011;10197;54.282;10.078;2023-06-22T13:41:22;3.38;;;2.20;;
20073;SDS011;10197;54.282;10.078;2023-06-22T13:43:49;2.30;;;2.10;;
20073;SDS011;10197;54.282;10.078;2023-06-22T13:46:17;2.70;;;2.15;;
20073;SDS011;10197;54.282;10.078;2023-06-22T13:48:46;4.22;;;1.95;;
20073;SDS011;10197;54.282;10.078;2023-06-22T13:51:12;3.10;;;2.55;;
20073;SDS011;10197;54.282;10.078;2023-06-22T13:53:39;2.97;;;1.77;;
20073;SDS011;10197;54.282;10.078;2023-06-22T13:56:06;2.17;;;1.98;;
20073;SDS011;10197;54.282;10.078;2023-06-22T13:58:33;2.22;;;1.90;;
20073;SDS011;10197;54.282;10.078;2023-06-22T14:01:00;2.83;;;2.05;;
20073;SDS011;10197;54.282;10.078;2023-06-22T14:03:27;2.25;;;2.00;;
20073;SDS011;10197;54.282;10.078;2023-06-22T14:05:55;4.80;;;1.90;;
20073;SDS011;10197;54.282;10.078;2023-06-22T14:08:23;3.17;;;2.17;;
20073;SDS011;10197;54.282;10.078;2023-06-22T14:10:50;2.08;;;1.95;;
20073;SDS011;10197;54.282;10.078;2023-06-22T14:13:19;3.63;;;2.17;;
20073;SDS011;10197;54.282;10.078;2023-06-22T14:15:45;4.13;;;1.60;;
20073;SDS011;10197;54.282;10.078;2023-06-22T14:18:13;4.25;;;2.20;;
20073;SDS011;10197;54.282;10.078;2023-06-22T14:20:40;3.60;;;1.90;;
20073;SDS011;10197;54.282;10.078;2023-06-22T14:23:09;2.05;;;1.85;;
20073;SDS011;10197;54.282;10.078;2023-06-22T14:25:36;1.98;;;1.50;;
20073;SDS011;10197;54.282;10.078;2023-06-22T14:28:03;1.83;;;1.73;;
20073;SDS011;10197;54.282;10.078;2023-06-22T14:30:30;2.22;;;1.60;;
20073;SDS011;10197;54.282;10.078;2023-06-22T14:32:57;2.50;;;1.70;;
20073;SDS011;10197;54.282;10.078;2023-06-22T14:35:24;1.90;;;1.70;;